sensor_id;sensor_type;location;lat;lon;timestamp;P1;P2;P0
73973;PMS5003;62336;-26.094;27.994;2024-01-10T00:00:50;17;16;
73973;PMS5003;62336;-26.094;27.994;2024-01-10T00:03:16;15;14;
73973;PMS5003;62336;-26.094;27.994;2024-01-10T00:05:41;21;17;
73973;PMS5003;62336;-26.094;27.994;2024-01-10T00:08:08;16;15;
73973;PMS5003;62336;-26.094;27.994;2024-01-10T00:10:32;14;14;
73973;PMS5003;62336;-26.094;27.994;2024-01-10T00:12:58;18;16;
73973;PMS5003;62336;-26.094;27.994;2024-01-10T00:15:24;15;14;
73973;PMS5003;62336;-26.094;27.994;2024-01-10T00:17:49;13;13;
73973;PMS5003;62336;-26.094;27.994;2024-01-10T00:20:15;14;14;
73973;PMS5003;62336;-26.094;27.994;2024-01-10T00:22:40;14;14;
73973;PMS5003;62336;-26.094;27.994;2024-01-10T00:25:05;20;17;
73973;PMS5003;62336;-26.094;27.994;2024-01-10T00:27:30;26;21;
73973;PMS5003;62336;-26.094;27.994;2024-01-10T00:29:56;17;15;
73973;PMS5003;62336;-26.094;27.994;2024-01-10T00:32:22;16;16;
73973;PMS5003;62336;-26.094;27.994;2024-01-10T00:34:47;16;15;
73973;PMS5003;62336;-26.094;27.994;2024-01-10T00:37:13;15;14;
73973;PMS5003;62336;-26.094;27.994;2024-01-10T00:39:39;19;18;
73973;PMS5003;62336;-26.094;27.994;2024-01-10T00:42:04;23;21;
73973;PMS5003;62336;-26.094;27.994;2024-01-10T00:44:30;21;20;
73973;PMS5003;62336;-26.094;27.994;2024-01-10T00:46:55;16;16;
73973;PMS5003;62336;-26.094;27.994;2024-01-10T00:49:20;23;21;
73973;PMS5003;62336;-26.094;27.994;2024-01-10T00:51:46;19;18;
73973;PMS5003;62336;-26.094;27.994;2024-01-10T00:54:11;17;17;
73973;PMS5003;62336;-26.094;27.994;2024-01-10T00:56:37;18;16;
73973;PMS5003;62336;-26.094;27.994;2024-01-10T00:59:02;20;18;
73973;PMS5003;62336;-26.094;27.994;2024-01-10T01:01:28;17;16;
73973;PMS5003;62336;-26.094;27.994;2024-01-10T01:03:53;22;21;
73973;PMS5003;62336;-26.094;27.994;2024-01-10T01:06:20;20;17;
73973;PMS5003;62336;-26.094;27.994;2024-01-10T01:08:45;20;18;
73973;PMS5003;62336;-26.094;27.994;2024-01-10T01:11:10;17;16;
73973;PMS5003;62336;-26.094;27.994;2024-01-10T01:13:36;18;17;
73973;PMS5003;62336;-26.094;27.994;2024-01-10T01:16:02;18;16;
73973;PMS5003;62336;-26.094;27.994;2024-01-10T01:18:28;16;15;
73973;PMS5003;62336;-26.094;27.994;2024-01-10T01:20:55;22;17;
73973;PMS5003;62336;-26.094;27.994;2024-01-10T01:23:18;22;22;
73973;PMS5003;62336;-26.094;27.994;2024-01-10T01:25:44;23;21;
73973;PMS5003;62336;-26.094;27.994;2024-01-10T01:28:09;26;24;
73973;PMS5003;62336;-26.094;27.994;2024-01-10T01:30:34;22;22;
73973;PMS5003;62336;-26.094;27.994;2024-01-10T01:33:00;23;21;
73973;PMS5003;62336;-26.094;27.994;2024-01-10T01:35:25;27;24;
73973;PMS5003;62336;-26.094;27.994;2024-01-10T01:37:51;28;24;
73973;PMS5003;62336;-26.094;27.994;2024-01-10T01:40:17;20;19;
73973;PMS5003;62336;-26.094;27.994;2024-01-10T01:42:44;26;24;
73973;PMS5003;62336;-26.094;27.994;2024-01-10T01:45:08;26;24;
73973;PMS5003;62336;-26.094;27.994;2024-01-10T01:47:33;23;21;
73973;PMS5003;62336;-26.094;27.994;2024-01-10T01:50:00;29;27;
73973;PMS5003;62336;-26.094;27.994;2024-01-10T01:52:24;28;24;
73973;PMS5003;62336;-26.094;27.994;2024-01-10T01:54:49;26;26;
73973;PMS5003;62336;-26.094;27.994;2024-01-10T01:57:15;27;26;
73973;PMS5003;62336;-26.094;27.994;2024-01-10T01:59:46;30;27;
73973;PMS5003;62336;-26.094;27.994;2024-01-10T02:02:06;23;22;
73973;PMS5003;62336;-26.094;27.994;2024-01-10T02:04:32;24;23;
73973;PMS5003;62336;-26.094;27.994;2024-01-10T02:06:57;21;19;
73973;PMS5003;62336;-26.094;27.994;2024-01-10T02:09:23;27;23;
73973;PMS5003;62336;-26.094;27.994;2024-01-10T02:11:49;21;18;
73973;PMS5003;62336;-26.094;27.994;2024-01-10T02:14:14;27;27;
73973;PMS5003;62336;-26.094;27.994;2024-01-10T02:16:39;27;24;
73973;PMS5003;62336;-26.094;27.994;2024-01-10T02:21:30;22;21;
73973;PMS5003;62336;-26.094;27.994;2024-01-10T02:23:55;25;21;
73973;PMS5003;62336;-26.094;27.994;2024-01-10T02:26:20;20;20;
73973;PMS5003;62336;-26.094;27.994;2024-01-10T02:28:45;23;20;
73973;PMS5003;62336;-26.094;27.994;2024-01-10T02:31:11;19;19;
73973;PMS5003;62336;-26.094;27.994;2024-01-10T02:33:37;22;20;
73973;PMS5003;62336;-26.094;27.994;2024-01-10T02:36:01;24;20;
73973;PMS5003;62336;-26.094;27.994;2024-01-10T02:38:27;29;24;
73973;PMS5003;62336;-26.094;27.994;2024-01-10T02:40:52;24;24;
73973;PMS5003;62336;-26.094;27.994;2024-01-10T02:43:17;23;19;
73973;PMS5003;62336;-26.094;27.994;2024-01-10T02:45:43;25;24;
73973;PMS5003;62336;-26.094;27.994;2024-01-10T02:48:08;24;23;
73973;PMS5003;62336;-26.094;27.994;2024-01-10T02:50:33;23;22;
73973;PMS5003;62336;-26.094;27.994;2024-01-10T02:52:59;19;17;
73973;PMS5003;62336;-26.094;27.994;2024-01-10T02:55:25;20;20;
73973;PMS5003;62336;-26.094;27.994;2024-01-10T02:57:51;22;22;
73973;PMS5003;62336;-26.094;27.994;2024-01-10T03:00:16;26;24;
73973;PMS5003;62336;-26.094;27.994;2024-01-10T03:02:41;20;19;
73973;PMS5003;62336;-26.094;27.994;2024-01-10T03:05:07;28;26;
73973;PMS5003;62336;-26.094;27.994;2024-01-10T03:07:32;24;22;
73973;PMS5003;62336;-26.094;27.994;2024-01-10T03:09:57;25;21;
73973;PMS5003;62336;-26.094;27.994;2024-01-10T03:12:22;27;25;
73973;PMS5003;62336;-26.094;27.994;2024-01-10T03:14:48;23;22;
73973;PMS5003;62336;-26.094;27.994;2024-01-10T03:17:14;21;20;
73973;PMS5003;62336;-26.094;27.994;2024-01-10T03:19:38;26;24;
73973;PMS5003;62336;-26.094;27.994;2024-01-10T03:22:05;30;29;
73973;PMS5003;62336;-26.094;27.994;2024-01-10T03:24:30;31;27;
73973;PMS5003;62336;-26.094;27.994;2024-01-10T03:26:55;22;22;
73973;PMS5003;62336;-26.094;27.994;2024-01-10T03:29:21;25;24;
73973;PMS5003;62336;-26.094;27.994;2024-01-10T03:31:47;31;28;
73973;PMS5003;62336;-26.094;27.994;2024-01-10T03:34:12;26;24;
73973;PMS5003;62336;-26.094;27.994;2024-01-10T03:36:37;30;29;
73973;PMS5003;62336;-26.094;27.994;2024-01-10T03:39:03;24;22;
73973;PMS5003;62336;-26.094;27.994;2024-01-10T03:41:29;26;23;
73973;PMS5003;62336;-26.094;27.994;2024-01-10T03:43:54;25;24;
73973;PMS5003;62336;-26.094;27.994;2024-01-10T03:46:20;23;22;
73973;PMS5003;62336;-26.094;27.994;2024-01-10T03:48:45;26;23;
73973;PMS5003;62336;-26.094;27.994;2024-01-10T03:51:11;29;26;
73973;PMS5003;62336;-26.094;27.994;2024-01-10T03:53:36;23;23;
73973;PMS5003;62336;-26.094;27.994;2024-01-10T03:56:03;24;23;
73973;PMS5003;62336;-26.094;27.994;2024-01-10T03:58:27;24;23;
73973;PMS5003;62336;-26.094;27.994;2024-01-10T04:00:53;31;27;
73973;PMS5003;62336;-26.094;27.994;2024-01-10T04:03:19;23;22;
73973;PMS5003;62336;-26.094;27.994;2024-01-10T04:05:44;27;26;
73973;PMS5003;62336;-26.094;27.994;2024-01-10T04:08:09;21;20;
73973;PMS5003;62336;-26.094;27.994;2024-01-10T04:10:35;26;24;
73973;PMS5003;62336;-26.094;27.994;2024-01-10T04:13:01;30;27;
73973;PMS5003;62336;-26.094;27.994;2024-01-10T04:15:26;23;22;
73973;PMS5003;62336;-26.094;27.994;2024-01-10T04:17:52;26;26;
73973;PMS5003;62336;-26.094;27.994;2024-01-10T04:20:17;27;26;
73973;PMS5003;62336;-26.094;27.994;2024-01-10T04:22:44;26;26;
73973;PMS5003;62336;-26.094;27.994;2024-01-10T04:25:08;29;26;
73973;PMS5003;62336;-26.094;27.994;2024-01-10T04:27:32;32;29;
73973;PMS5003;62336;-26.094;27.994;2024-01-10T04:29:57;23;22;
73973;PMS5003;62336;-26.094;27.994;2024-01-10T04:32:23;30;28;
73973;PMS5003;62336;-26.094;27.994;2024-01-10T04:34:49;28;25;
73973;PMS5003;62336;-26.094;27.994;2024-01-10T04:37:14;24;23;
73973;PMS5003;62336;-26.094;27.994;2024-01-10T04:39:39;26;26;
73973;PMS5003;62336;-26.094;27.994;2024-01-10T04:42:05;26;26;
73973;PMS5003;62336;-26.094;27.994;2024-01-10T04:44:30;26;23;
73973;PMS5003;62336;-26.094;27.994;2024-01-10T04:46:55;28;26;
73973;PMS5003;62336;-26.094;27.994;2024-01-10T04:49:21;23;22;
73973;PMS5003;62336;-26.094;27.994;2024-01-10T04:51:46;25;24;
73973;PMS5003;62336;-26.094;27.994;2024-01-10T04:54:12;26;24;
73973;PMS5003;62336;-26.094;27.994;2024-01-10T04:56:38;24;23;
73973;PMS5003;62336;-26.094;27.994;2024-01-10T04:59:03;35;29;
73973;PMS5003;62336;-26.094;27.994;2024-01-10T05:01:28;26;26;
73973;PMS5003;62336;-26.094;27.994;2024-01-10T05:03:53;20;19;
73973;PMS5003;62336;-26.094;27.994;2024-01-10T05:06:18;28;27;
73973;PMS5003;62336;-26.094;27.994;2024-01-10T05:08:44;26;24;
73973;PMS5003;62336;-26.094;27.994;2024-01-10T05:11:10;25;23;
73973;PMS5003;62336;-26.094;27.994;2024-01-10T05:13:35;27;25;
73973;PMS5003;62336;-26.094;27.994;2024-01-10T05:16:00;25;23;
73973;PMS5003;62336;-26.094;27.994;2024-01-10T05:18:25;24;22;
73973;PMS5003;62336;-26.094;27.994;2024-01-10T05:20:51;19;19;
73973;PMS5003;62336;-26.094;27.994;2024-01-10T05:23:17;22;21;
73973;PMS5003;62336;-26.094;27.994;2024-01-10T05:25:42;20;19;
73973;PMS5003;62336;-26.094;27.994;2024-01-10T05:28:08;18;18;
73973;PMS5003;62336;-26.094;27.994;2024-01-10T05:30:33;26;26;
73973;PMS5003;62336;-26.094;27.994;2024-01-10T05:32:58;26;24;
73973;PMS5003;62336;-26.094;27.994;2024-01-10T05:35:23;26;24;
73973;PMS5003;62336;-26.094;27.994;2024-01-10T05:37:48;24;23;
73973;PMS5003;62336;-26.094;27.994;2024-01-10T05:40:14;27;24;
73973;PMS5003;62336;-26.094;27.994;2024-01-10T05:42:40;27;27;
73973;PMS5003;62336;-26.094;27.994;2024-01-10T05:45:06;24;23;
73973;PMS5003;62336;-26.094;27.994;2024-01-10T05:47:31;26;24;
73973;PMS5003;62336;-26.094;27.994;2024-01-10T05:49:57;32;30;
73973;PMS5003;62336;-26.094;27.994;2024-01-10T05:52:22;26;25;
73973;PMS5003;62336;-26.094;27.994;2024-01-10T05:54:48;25;24;
73973;PMS5003;62336;-26.094;27.994;2024-01-10T05:57:13;29;27;
73973;PMS5003;62336;-26.094;27.994;2024-01-10T05:59:38;29;28;
73973;PMS5003;62336;-26.094;27.994;2024-01-10T06:02:03;25;25;
73973;PMS5003;62336;-26.094;27.994;2024-01-10T06:04:29;25;25;
73973;PMS5003;62336;-26.094;27.994;2024-01-10T06:06:55;34;31;
73973;PMS5003;62336;-26.094;27.994;2024-01-10T06:09:20;24;24;
73973;PMS5003;62336;-26.094;27.994;2024-01-10T06:11:46;34;31;
73973;PMS5003;62336;-26.094;27.994;2024-01-10T06:14:11;23;23;
73973;PMS5003;62336;-26.094;27.994;2024-01-10T06:16:37;27;27;
73973;PMS5003;62336;-26.094;27.994;2024-01-10T06:19:02;27;26;
73973;PMS5003;62336;-26.094;27.994;2024-01-10T06:21:28;21;21;
73973;PMS5003;62336;-26.094;27.994;2024-01-10T06:23:54;31;29;
73973;PMS5003;62336;-26.094;27.994;2024-01-10T06:26:19;27;24;
73973;PMS5003;62336;-26.094;27.994;2024-01-10T06:28:44;30;28;
73973;PMS5003;62336;-26.094;27.994;2024-01-10T06:31:10;29;27;
73973;PMS5003;62336;-26.094;27.994;2024-01-10T06:33:35;25;24;
73973;PMS5003;62336;-26.094;27.994;2024-01-10T06:36:01;25;23;
73973;PMS5003;62336;-26.094;27.994;2024-01-10T06:38:26;26;26;
73973;PMS5003;62336;-26.094;27.994;2024-01-10T06:40:51;26;25;
73973;PMS5003;62336;-26.094;27.994;2024-01-10T06:43:17;27;26;
73973;PMS5003;62336;-26.094;27.994;2024-01-10T06:45:42;25;24;
73973;PMS5003;62336;-26.094;27.994;2024-01-10T06:48:08;26;25;
73973;PMS5003;62336;-26.094;27.994;2024-01-10T06:50:33;30;27;
73973;PMS5003;62336;-26.094;27.994;2024-01-10T06:52:58;29;26;
73973;PMS5003;62336;-26.094;27.994;2024-01-10T06:55:24;24;24;
73973;PMS5003;62336;-26.094;27.994;2024-01-10T06:57:49;22;21;
73973;PMS5003;62336;-26.094;27.994;2024-01-10T07:00:16;23;21;
73973;PMS5003;62336;-26.094;27.994;2024-01-10T07:02:39;26;25;
73973;PMS5003;62336;-26.094;27.994;2024-01-10T07:05:07;27;24;
73973;PMS5003;62336;-26.094;27.994;2024-01-10T07:07:30;25;24;
73973;PMS5003;62336;-26.094;27.994;2024-01-10T07:09:56;27;26;
73973;PMS5003;62336;-26.094;27.994;2024-01-10T07:12:21;21;20;
73973;PMS5003;62336;-26.094;27.994;2024-01-10T07:14:47;27;25;
73973;PMS5003;62336;-26.094;27.994;2024-01-10T07:17:12;25;23;
73973;PMS5003;62336;-26.094;27.994;2024-01-10T07:19:38;22;21;
73973;PMS5003;62336;-26.094;27.994;2024-01-10T07:22:03;21;21;
73973;PMS5003;62336;-26.094;27.994;2024-01-10T07:24:29;19;18;
73973;PMS5003;62336;-26.094;27.994;2024-01-10T07:26:54;21;21;
73973;PMS5003;62336;-26.094;27.994;2024-01-10T07:29:20;24;24;
73973;PMS5003;62336;-26.094;27.994;2024-01-10T07:31:45;22;21;
73973;PMS5003;62336;-26.094;27.994;2024-01-10T07:34:11;19;19;
73973;PMS5003;62336;-26.094;27.994;2024-01-10T07:36:41;22;22;
73973;PMS5003;62336;-26.094;27.994;2024-01-10T07:39:02;23;21;
73973;PMS5003;62336;-26.094;27.994;2024-01-10T07:41:28;21;18;
73973;PMS5003;62336;-26.094;27.994;2024-01-10T07:43:54;23;22;
73973;PMS5003;62336;-26.094;27.994;2024-01-10T07:46:19;21;20;
73973;PMS5003;62336;-26.094;27.994;2024-01-10T07:48:47;25;23;
73973;PMS5003;62336;-26.094;27.994;2024-01-10T07:51:10;23;23;
73973;PMS5003;62336;-26.094;27.994;2024-01-10T07:53:36;24;23;
73973;PMS5003;62336;-26.094;27.994;2024-01-10T07:56:02;26;23;
73973;PMS5003;62336;-26.094;27.994;2024-01-10T07:58:27;25;24;
73973;PMS5003;62336;-26.094;27.994;2024-01-10T08:00:53;32;31;
73973;PMS5003;62336;-26.094;27.994;2024-01-10T08:03:17;34;33;
73973;PMS5003;62336;-26.094;27.994;2024-01-10T08:05:42;35;34;
73973;PMS5003;62336;-26.094;27.994;2024-01-10T08:08:08;28;27;
73973;PMS5003;62336;-26.094;27.994;2024-01-10T08:10:34;24;23;
73973;PMS5003;62336;-26.094;27.994;2024-01-10T08:12:59;4;4;
73973;PMS5003;62336;-26.094;27.994;2024-01-10T08:15:25;5;4;
73973;PMS5003;62336;-26.094;27.994;2024-01-10T08:17:51;2;2;
73973;PMS5003;62336;-26.094;27.994;2024-01-10T08:20:16;2;2;
73973;PMS5003;62336;-26.094;27.994;2024-01-10T08:22:42;2;2;
73973;PMS5003;62336;-26.094;27.994;2024-01-10T08:25:09;3;3;
73973;PMS5003;62336;-26.094;27.994;2024-01-10T08:27:34;7;2;
73973;PMS5003;62336;-26.094;27.994;2024-01-10T08:30:00;3;3;
73973;PMS5003;62336;-26.094;27.994;2024-01-10T08:32:26;1;1;
73973;PMS5003;62336;-26.094;27.994;2024-01-10T08:34:51;1;1;
73973;PMS5003;62336;-26.094;27.994;2024-01-10T08:37:17;3;2;
73973;PMS5003;62336;-26.094;27.994;2024-01-10T08:39:43;2;2;
73973;PMS5003;62336;-26.094;27.994;2024-01-10T08:42:09;6;2;
73973;PMS5003;62336;-26.094;27.994;2024-01-10T08:44:34;4;2;
73973;PMS5003;62336;-26.094;27.994;2024-01-10T08:47:00;3;3;
73973;PMS5003;62336;-26.094;27.994;2024-01-10T08:49:26;3;3;
73973;PMS5003;62336;-26.094;27.994;2024-01-10T08:51:52;2;2;
73973;PMS5003;62336;-26.094;27.994;2024-01-10T08:54:18;3;3;
73973;PMS5003;62336;-26.094;27.994;2024-01-10T08:56:43;3;3;
73973;PMS5003;62336;-26.094;27.994;2024-01-10T08:59:10;4;4;
73973;PMS5003;62336;-26.094;27.994;2024-01-10T09:01:35;3;2;
73973;PMS5003;62336;-26.094;27.994;2024-01-10T09:04:01;6;6;
73973;PMS5003;62336;-26.094;27.994;2024-01-10T09:06:26;6;5;
73973;PMS5003;62336;-26.094;27.994;2024-01-10T09:08:52;5;4;
73973;PMS5003;62336;-26.094;27.994;2024-01-10T09:11:18;5;4;
73973;PMS5003;62336;-26.094;27.994;2024-01-10T09:13:44;7;6;
73973;PMS5003;62336;-26.094;27.994;2024-01-10T09:16:10;5;4;
73973;PMS5003;62336;-26.094;27.994;2024-01-10T09:18:35;3;3;
73973;PMS5003;62336;-26.094;27.994;2024-01-10T09:21:01;4;4;
73973;PMS5003;62336;-26.094;27.994;2024-01-10T09:23:27;6;5;
73973;PMS5003;62336;-26.094;27.994;2024-01-10T09:25:53;4;4;
73973;PMS5003;62336;-26.094;27.994;2024-01-10T09:28:19;4;4;
73973;PMS5003;62336;-26.094;27.994;2024-01-10T09:30:45;5;5;
73973;PMS5003;62336;-26.094;27.994;2024-01-10T09:33:10;4;4;
73973;PMS5003;62336;-26.094;27.994;2024-01-10T09:35:36;3;3;
73973;PMS5003;62336;-26.094;27.994;2024-01-10T09:38:02;6;5;
73973;PMS5003;62336;-26.094;27.994;2024-01-10T09:40:28;9;8;
73973;PMS5003;62336;-26.094;27.994;2024-01-10T09:42:53;10;9;
73973;PMS5003;62336;-26.094;27.994;2024-01-10T09:45:19;13;12;
73973;PMS5003;62336;-26.094;27.994;2024-01-10T09:47:45;9;9;
73973;PMS5003;62336;-26.094;27.994;2024-01-10T09:50:11;9;8;
73973;PMS5003;62336;-26.094;27.994;2024-01-10T09:52:39;9;9;
73973;PMS5003;62336;-26.094;27.994;2024-01-10T09:55:02;8;7;
73973;PMS5003;62336;-26.094;27.994;2024-01-10T09:57:28;7;7;
73973;PMS5003;62336;-26.094;27.994;2024-01-10T09:59:54;7;6;
73973;PMS5003;62336;-26.094;27.994;2024-01-10T10:02:21;10;9;
73973;PMS5003;62336;-26.094;27.994;2024-01-10T10:04:46;10;9;
73973;PMS5003;62336;-26.094;27.994;2024-01-10T10:07:10;14;13;
73973;PMS5003;62336;-26.094;27.994;2024-01-10T10:09:36;8;8;
73973;PMS5003;62336;-26.094;27.994;2024-01-10T10:12:02;8;8;
73973;PMS5003;62336;-26.094;27.994;2024-01-10T10:14:28;9;9;
73973;PMS5003;62336;-26.094;27.994;2024-01-10T10:16:53;8;8;
73973;PMS5003;62336;-26.094;27.994;2024-01-10T10:19:22;9;9;
73973;PMS5003;62336;-26.094;27.994;2024-01-10T10:21:45;9;9;
73973;PMS5003;62336;-26.094;27.994;2024-01-10T10:24:10;9;9;
73973;PMS5003;62336;-26.094;27.994;2024-01-10T10:26:39;8;8;
73973;PMS5003;62336;-26.094;27.994;2024-01-10T10:29:02;8;8;
73973;PMS5003;62336;-26.094;27.994;2024-01-10T10:31:28;11;10;
73973;PMS5003;62336;-26.094;27.994;2024-01-10T10:33:54;7;7;
73973;PMS5003;62336;-26.094;27.994;2024-01-10T10:36:21;7;7;
73973;PMS5003;62336;-26.094;27.994;2024-01-10T10:38:47;8;8;
73973;PMS5003;62336;-26.094;27.994;2024-01-10T10:41:11;10;10;
73973;PMS5003;62336;-26.094;27.994;2024-01-10T10:43:39;12;11;
73973;PMS5003;62336;-26.094;27.994;2024-01-10T10:46:04;13;12;
73973;PMS5003;62336;-26.094;27.994;2024-01-10T10:48:28;14;13;
73973;PMS5003;62336;-26.094;27.994;2024-01-10T10:50:57;13;13;
73973;PMS5003;62336;-26.094;27.994;2024-01-10T10:53:20;13;13;
73973;PMS5003;62336;-26.094;27.994;2024-01-10T10:55:45;18;17;
73973;PMS5003;62336;-26.094;27.994;2024-01-10T10:58:11;16;15;
73973;PMS5003;62336;-26.094;27.994;2024-01-10T11:00:36;18;18;
73973;PMS5003;62336;-26.094;27.994;2024-01-10T11:03:06;19;19;
73973;PMS5003;62336;-26.094;27.994;2024-01-10T11:05:28;19;17;
73973;PMS5003;62336;-26.094;27.994;2024-01-10T11:10:22;17;15;
73973;PMS5003;62336;-26.094;27.994;2024-01-10T11:12:54;21;19;
73973;PMS5003;62336;-26.094;27.994;2024-01-10T11:15:24;19;18;
73973;PMS5003;62336;-26.094;27.994;2024-01-10T11:24:53;21;19;
73973;PMS5003;62336;-26.094;27.994;2024-01-10T11:27:20;24;24;
73973;PMS5003;62336;-26.094;27.994;2024-01-10T11:29:45;17;17;
73973;PMS5003;62336;-26.094;27.994;2024-01-10T11:32:12;17;17;
73973;PMS5003;62336;-26.094;27.994;2024-01-10T11:34:35;17;16;
73973;PMS5003;62336;-26.094;27.994;2024-01-10T11:37:09;27;25;
73973;PMS5003;62336;-26.094;27.994;2024-01-10T11:39:27;21;21;
73973;PMS5003;62336;-26.094;27.994;2024-01-10T11:41:52;17;17;
73973;PMS5003;62336;-26.094;27.994;2024-01-10T11:44:27;21;19;
73973;PMS5003;62336;-26.094;27.994;2024-01-10T11:46:45;19;18;
73973;PMS5003;62336;-26.094;27.994;2024-01-10T11:49:09;23;19;
73973;PMS5003;62336;-26.094;27.994;2024-01-10T11:51:35;25;23;
73973;PMS5003;62336;-26.094;27.994;2024-01-10T11:54:00;19;18;
73973;PMS5003;62336;-26.094;27.994;2024-01-10T11:56:25;24;24;
73973;PMS5003;62336;-26.094;27.994;2024-01-10T11:58:56;23;23;
73973;PMS5003;62336;-26.094;27.994;2024-01-10T12:01:15;23;21;
73973;PMS5003;62336;-26.094;27.994;2024-01-10T12:03:41;21;19;
73973;PMS5003;62336;-26.094;27.994;2024-01-10T12:06:06;21;20;
73973;PMS5003;62336;-26.094;27.994;2024-01-10T12:08:31;24;22;
73973;PMS5003;62336;-26.094;27.994;2024-01-10T12:10:56;26;24;
73973;PMS5003;62336;-26.094;27.994;2024-01-10T12:13:22;23;22;
73973;PMS5003;62336;-26.094;27.994;2024-01-10T12:15:47;29;27;
73973;PMS5003;62336;-26.094;27.994;2024-01-10T12:18:12;27;26;
73973;PMS5003;62336;-26.094;27.994;2024-01-10T12:20:37;26;26;
73973;PMS5003;62336;-26.094;27.994;2024-01-10T12:23:03;27;25;
73973;PMS5003;62336;-26.094;27.994;2024-01-10T12:25:29;24;23;
73973;PMS5003;62336;-26.094;27.994;2024-01-10T12:27:55;27;26;
73973;PMS5003;62336;-26.094;27.994;2024-01-10T12:30:20;33;29;
73973;PMS5003;62336;-26.094;27.994;2024-01-10T12:32:50;29;27;
73973;PMS5003;62336;-26.094;27.994;2024-01-10T12:35:12;28;27;
73973;PMS5003;62336;-26.094;27.994;2024-01-10T12:37:38;25;23;
73973;PMS5003;62336;-26.094;27.994;2024-01-10T12:40:06;31;28;
73973;PMS5003;62336;-26.094;27.994;2024-01-10T12:42:28;35;32;
73973;PMS5003;62336;-26.094;27.994;2024-01-10T12:44:54;34;32;
73973;PMS5003;62336;-26.094;27.994;2024-01-10T12:47:21;24;24;
73973;PMS5003;62336;-26.094;27.994;2024-01-10T12:49:45;25;23;
73973;PMS5003;62336;-26.094;27.994;2024-01-10T12:52:13;29;26;
73973;PMS5003;62336;-26.094;27.994;2024-01-10T12:54:37;33;31;
73973;PMS5003;62336;-26.094;27.994;2024-01-10T12:57:02;27;24;
73973;PMS5003;62336;-26.094;27.994;2024-01-10T12:59:27;31;27;
73973;PMS5003;62336;-26.094;27.994;2024-01-10T13:01:53;25;25;
73973;PMS5003;62336;-26.094;27.994;2024-01-10T13:04:18;26;25;
73973;PMS5003;62336;-26.094;27.994;2024-01-10T13:06:44;30;25;
73973;PMS5003;62336;-26.094;27.994;2024-01-10T13:09:14;30;28;
73973;PMS5003;62336;-26.094;27.994;2024-01-10T13:11:35;20;19;
73973;PMS5003;62336;-26.094;27.994;2024-01-10T13:14:00;26;24;
73973;PMS5003;62336;-26.094;27.994;2024-01-10T13:16:26;29;28;
73973;PMS5003;62336;-26.094;27.994;2024-01-10T13:18:51;29;28;
73973;PMS5003;62336;-26.094;27.994;2024-01-10T13:21:17;36;34;
73973;PMS5003;62336;-26.094;27.994;2024-01-10T13:23:43;26;24;
73973;PMS5003;62336;-26.094;27.994;2024-01-10T13:26:08;28;27;
73973;PMS5003;62336;-26.094;27.994;2024-01-10T13:28:36;31;27;
73973;PMS5003;62336;-26.094;27.994;2024-01-10T13:31:00;28;24;
73973;PMS5003;62336;-26.094;27.994;2024-01-10T13:33:25;29;27;
73973;PMS5003;62336;-26.094;27.994;2024-01-10T13:35:51;30;29;
73973;PMS5003;62336;-26.094;27.994;2024-01-10T13:38:16;32;29;
73973;PMS5003;62336;-26.094;27.994;2024-01-10T13:40:41;29;28;
73973;PMS5003;62336;-26.094;27.994;2024-01-10T13:43:06;26;25;
73973;PMS5003;62336;-26.094;27.994;2024-01-10T13:45:32;26;25;
73973;PMS5003;62336;-26.094;27.994;2024-01-10T13:47:57;27;25;
73973;PMS5003;62336;-26.094;27.994;2024-01-10T13:50:23;27;27;
73973;PMS5003;62336;-26.094;27.994;2024-01-10T13:52:49;26;23;
73973;PMS5003;62336;-26.094;27.994;2024-01-10T13:55:14;24;22;
73973;PMS5003;62336;-26.094;27.994;2024-01-10T13:57:39;26;24;
73973;PMS5003;62336;-26.094;27.994;2024-01-10T14:00:06;29;27;
73973;PMS5003;62336;-26.094;27.994;2024-01-10T14:02:30;32;29;
73973;PMS5003;62336;-26.094;27.994;2024-01-10T14:04:55;28;26;
73973;PMS5003;62336;-26.094;27.994;2024-01-10T14:07:21;25;23;
73973;PMS5003;62336;-26.094;27.994;2024-01-10T14:09:47;24;23;
73973;PMS5003;62336;-26.094;27.994;2024-01-10T14:12:12;31;30;
73973;PMS5003;62336;-26.094;27.994;2024-01-10T14:14:38;27;27;
73973;PMS5003;62336;-26.094;27.994;2024-01-10T14:17:04;31;28;
73973;PMS5003;62336;-26.094;27.994;2024-01-10T14:19:29;26;26;
73973;PMS5003;62336;-26.094;27.994;2024-01-10T14:21:55;30;30;
73973;PMS5003;62336;-26.094;27.994;2024-01-10T14:24:20;30;29;
73973;PMS5003;62336;-26.094;27.994;2024-01-10T14:26:45;30;29;
73973;PMS5003;62336;-26.094;27.994;2024-01-10T14:29:11;28;25;
73973;PMS5003;62336;-26.094;27.994;2024-01-10T14:31:36;41;35;
73973;PMS5003;62336;-26.094;27.994;2024-01-10T14:34:01;31;29;
73973;PMS5003;62336;-26.094;27.994;2024-01-10T14:36:27;33;32;
73973;PMS5003;62336;-26.094;27.994;2024-01-10T14:38:52;33;31;
73973;PMS5003;62336;-26.094;27.994;2024-01-10T14:41:17;34;31;
73973;PMS5003;62336;-26.094;27.994;2024-01-10T14:43:43;36;33;
73973;PMS5003;62336;-26.094;27.994;2024-01-10T14:46:08;34;32;
73973;PMS5003;62336;-26.094;27.994;2024-01-10T14:48:34;37;34;
73973;PMS5003;62336;-26.094;27.994;2024-01-10T14:50:59;33;30;
73973;PMS5003;62336;-26.094;27.994;2024-01-10T14:53:24;32;31;
73973;PMS5003;62336;-26.094;27.994;2024-01-10T14:55:49;36;34;
73973;PMS5003;62336;-26.094;27.994;2024-01-10T14:58:15;33;31;
73973;PMS5003;62336;-26.094;27.994;2024-01-10T15:00:40;37;36;
73973;PMS5003;62336;-26.094;27.994;2024-01-10T15:03:05;38;37;
73973;PMS5003;62336;-26.094;27.994;2024-01-10T15:05:32;34;31;
73973;PMS5003;62336;-26.094;27.994;2024-01-10T15:07:57;39;37;
73973;PMS5003;62336;-26.094;27.994;2024-01-10T15:10:22;36;33;
73973;PMS5003;62336;-26.094;27.994;2024-01-10T15:12:48;38;33;
73973;PMS5003;62336;-26.094;27.994;2024-01-10T15:15:13;35;34;
73973;PMS5003;62336;-26.094;27.994;2024-01-10T15:17:39;38;36;
73973;PMS5003;62336;-26.094;27.994;2024-01-10T15:20:04;33;32;
73973;PMS5003;62336;-26.094;27.994;2024-01-10T15:22:30;40;38;
73973;PMS5003;62336;-26.094;27.994;2024-01-10T15:24:55;39;36;
73973;PMS5003;62336;-26.094;27.994;2024-01-10T15:27:21;32;32;
73973;PMS5003;62336;-26.094;27.994;2024-01-10T15:29:47;40;37;
73973;PMS5003;62336;-26.094;27.994;2024-01-10T15:32:12;36;33;
73973;PMS5003;62336;-26.094;27.994;2024-01-10T15:34:37;47;45;
73973;PMS5003;62336;-26.094;27.994;2024-01-10T15:37:03;44;40;
73973;PMS5003;62336;-26.094;27.994;2024-01-10T15:39:28;42;39;
73973;PMS5003;62336;-26.094;27.994;2024-01-10T15:41:54;45;40;
73973;PMS5003;62336;-26.094;27.994;2024-01-10T15:44:20;40;37;
73973;PMS5003;62336;-26.094;27.994;2024-01-10T15:46:45;38;35;
73973;PMS5003;62336;-26.094;27.994;2024-01-10T15:49:10;41;39;